sensor_id;sensor_type;location;lat;lon;timestamp;temperature;humidity
44463;DHT22;30170;52.190;8.702;2022-12-07T00:02:22;4.00;99.90
44463;DHT22;30170;52.190;8.702;2022-12-07T00:04:49;6.10;99.90
44463;DHT22;30170;52.190;8.702;2022-12-07T00:07:16;4.40;99.90
44463;DHT22;30170;52.190;8.702;2022-12-07T00:09:43;5.10;99.90
44463;DHT22;30170;52.190;8.702;2022-12-07T00:12:14;3.80;99.90
44463;DHT22;30170;52.190;8.702;2022-12-07T00:14:41;4.40;99.90
44463;DHT22;30170;52.190;8.702;2022-12-07T00:17:07;3.80;99.90
44463;DHT22;30170;52.190;8.702;2022-12-07T00:19:34;3.90;99.90
44463;DHT22;30170;52.190;8.702;2022-12-07T00:22:01;3.70;99.90
44463;DHT22;30170;52.190;8.702;2022-12-07T00:24:28;4.00;99.90
44463;DHT22;30170;52.190;8.702;2022-12-07T00:26:55;3.30;99.90
44463;DHT22;30170;52.190;8.702;2022-12-07T00:29:22;5.80;99.90
44463;DHT22;30170;52.190;8.702;2022-12-07T00:31:49;4.10;99.90
44463;DHT22;30170;52.190;8.702;2022-12-07T00:34:18;4.60;99.90
44463;DHT22;30170;52.190;8.702;2022-12-07T00:36:45;4.10;99.90
44463;DHT22;30170;52.190;8.702;2022-12-07T00:39:12;4.60;99.90
44463;DHT22;30170;52.190;8.702;2022-12-07T00:41:40;2.50;99.90
44463;DHT22;30170;52.190;8.702;2022-12-07T00:44:07;3.30;99.90
44463;DHT22;30170;52.190;8.702;2022-12-07T00:46:36;4.00;99.90
44463;DHT22;30170;52.190;8.702;2022-12-07T00:49:09;3.90;99.90
44463;DHT22;30170;52.190;8.702;2022-12-07T00:51:35;4.10;99.90
44463;DHT22;30170;52.190;8.702;2022-12-07T00:54:03;4.00;99.90
44463;DHT22;30170;52.190;8.702;2022-12-07T00:56:33;4.20;99.90
44463;DHT22;30170;52.190;8.702;2022-12-07T00:59:05;4.20;99.90
44463;DHT22;30170;52.190;8.702;2022-12-07T01:01:35;4.10;99.90
44463;DHT22;30170;52.190;8.702;2022-12-07T01:04:12;4.20;99.90
44463;DHT22;30170;52.190;8.702;2022-12-07T01:06:44;4.10;99.90
44463;DHT22;30170;52.190;8.702;2022-12-07T01:09:13;4.20;99.90
44463;DHT22;30170;52.190;8.702;2022-12-07T01:11:40;4.20;99.90
44463;DHT22;30170;52.190;8.702;2022-12-07T01:14:17;5.30;99.90
44463;DHT22;30170;52.190;8.702;2022-12-07T01:16:49;4.20;99.90
44463;DHT22;30170;52.190;8.702;2022-12-07T01:19:25;4.20;99.90
44463;DHT22;30170;52.190;8.702;2022-12-07T01:21:59;4.10;99.90
44463;DHT22;30170;52.190;8.702;2022-12-07T01:24:45;4.10;99.90
44463;DHT22;30170;52.190;8.702;2022-12-07T01:27:14;4.70;99.90
44463;DHT22;30170;52.190;8.702;2022-12-07T01:29:42;3.50;99.90
44463;DHT22;30170;52.190;8.702;2022-12-07T01:32:16;3.40;99.90
44463;DHT22;30170;52.190;8.702;2022-12-07T01:34:55;4.10;99.90
44463;DHT22;30170;52.190;8.702;2022-12-07T01:37:35;4.10;99.90
44463;DHT22;30170;52.190;8.702;2022-12-07T01:40:16;4.10;99.90
44463;DHT22;30170;52.190;8.702;2022-12-07T01:42:49;4.30;99.90
44463;DHT22;30170;52.190;8.702;2022-12-07T01:45:34;4.00;99.90
44463;DHT22;30170;52.190;8.702;2022-12-07T01:48:04;4.30;99.90
44463;DHT22;30170;52.190;8.702;2022-12-07T01:50:44;3.90;99.90
44463;DHT22;30170;52.190;8.702;2022-12-07T01:53:19;4.10;99.90
44463;DHT22;30170;52.190;8.702;2022-12-07T01:55:58;3.70;99.90
44463;DHT22;30170;52.190;8.702;2022-12-07T01:58:37;3.60;99.90
44463;DHT22;30170;52.190;8.702;2022-12-07T02:01:07;3.60;99.90
44463;DHT22;30170;52.190;8.702;2022-12-07T02:03:39;4.50;99.90
44463;DHT22;30170;52.190;8.702;2022-12-07T02:06:45;3.50;99.90
44463;DHT22;30170;52.190;8.702;2022-12-07T02:09:35;3.50;99.90
44463;DHT22;30170;52.190;8.702;2022-12-07T02:12:20;3.50;99.90
44463;DHT22;30170;52.190;8.702;2022-12-07T02:14:55;3.40;99.90
44463;DHT22;30170;52.190;8.702;2022-12-07T02:17:48;3.40;99.90
44463;DHT22;30170;52.190;8.702;2022-12-07T02:20:45;3.40;99.90
44463;DHT22;30170;52.190;8.702;2022-12-07T02:36:19;5.30;99.90
44463;DHT22;30170;52.190;8.702;2022-12-07T02:42:21;3.70;99.90
44463;DHT22;30170;52.190;8.702;2022-12-07T02:45:22;3.60;99.90
44463;DHT22;30170;52.190;8.702;2022-12-07T02:48:23;4.90;99.90
44463;DHT22;30170;52.190;8.702;2022-12-07T02:51:17;3.50;99.90
44463;DHT22;30170;52.190;8.702;2022-12-07T02:54:41;3.60;99.90
44463;DHT22;30170;52.190;8.702;2022-12-07T02:57:34;3.50;99.90
44463;DHT22;30170;52.190;8.702;2022-12-07T03:24:47;5.00;99.90
44463;DHT22;30170;52.190;8.702;2022-12-07T03:31:17;2.50;99.90
44463;DHT22;30170;52.190;8.702;2022-12-07T03:34:31;4.50;99.90
44463;DHT22;30170;52.190;8.702;2022-12-07T03:40:37;3.30;99.90
44463;DHT22;30170;52.190;8.702;2022-12-07T03:43:19;3.40;99.90
44463;DHT22;30170;52.190;8.702;2022-12-07T03:46:27;1.40;99.90
44463;DHT22;30170;52.190;8.702;2022-12-07T03:54:36;2.30;99.90
44463;DHT22;30170;52.190;8.702;2022-12-07T03:57:08;3.60;99.90
44463;DHT22;30170;52.190;8.702;2022-12-07T03:59:57;2.90;99.90
44463;DHT22;30170;52.190;8.702;2022-12-07T04:02:44;3.00;99.90
44463;DHT22;30170;52.190;8.702;2022-12-07T04:05:15;2.30;99.90
44463;DHT22;30170;52.190;8.702;2022-12-07T04:07:50;3.10;99.90
44463;DHT22;30170;52.190;8.702;2022-12-07T04:10:23;3.10;99.90
44463;DHT22;30170;52.190;8.702;2022-12-07T04:12:54;3.10;99.90
44463;DHT22;30170;52.190;8.702;2022-12-07T04:15:23;3.20;99.90
44463;DHT22;30170;52.190;8.702;2022-12-07T04:17:50;3.10;99.90
44463;DHT22;30170;52.190;8.702;2022-12-07T04:20:17;5.20;99.90
44463;DHT22;30170;52.190;8.702;2022-12-07T04:22:51;3.20;99.90
44463;DHT22;30170;52.190;8.702;2022-12-07T04:25:24;3.20;99.90
44463;DHT22;30170;52.190;8.702;2022-12-07T04:27:51;3.30;99.90
44463;DHT22;30170;52.190;8.702;2022-12-07T04:30:18;4.40;99.90
44463;DHT22;30170;52.190;8.702;2022-12-07T04:32:45;3.90;99.90
44463;DHT22;30170;52.190;8.702;2022-12-07T04:35:12;2.60;99.90
44463;DHT22;30170;52.190;8.702;2022-12-07T04:37:39;2.80;99.90
44463;DHT22;30170;52.190;8.702;2022-12-07T04:40:07;3.20;99.90
44463;DHT22;30170;52.190;8.702;2022-12-07T04:42:37;3.20;99.90
44463;DHT22;30170;52.190;8.702;2022-12-07T04:45:04;3.20;99.90
44463;DHT22;30170;52.190;8.702;2022-12-07T04:47:31;3.10;99.90
44463;DHT22;30170;52.190;8.702;2022-12-07T04:49:57;4.00;99.90
44463;DHT22;30170;52.190;8.702;2022-12-07T04:52:25;3.10;99.90
44463;DHT22;30170;52.190;8.702;2022-12-07T04:54:52;3.10;99.90
44463;DHT22;30170;52.190;8.702;2022-12-07T04:57:19;3.30;99.90
44463;DHT22;30170;52.190;8.702;2022-12-07T04:59:45;3.00;99.90
44463;DHT22;30170;52.190;8.702;2022-12-07T05:02:12;2.80;99.90
44463;DHT22;30170;52.190;8.702;2022-12-07T05:04:39;2.90;99.90
44463;DHT22;30170;52.190;8.702;2022-12-07T05:07:06;3.20;99.90
44463;DHT22;30170;52.190;8.702;2022-12-07T05:09:33;2.90;99.90
44463;DHT22;30170;52.190;8.702;2022-12-07T05:12:00;5.50;99.90
44463;DHT22;30170;52.190;8.702;2022-12-07T05:14:26;3.20;99.90
44463;DHT22;30170;52.190;8.702;2022-12-07T05:16:56;5.30;99.90
44463;DHT22;30170;52.190;8.702;2022-12-07T05:19:25;3.20;99.90
44463;DHT22;30170;52.190;8.702;2022-12-07T05:21:53;3.20;99.90
44463;DHT22;30170;52.190;8.702;2022-12-07T05:24:19;3.10;99.90
44463;DHT22;30170;52.190;8.702;2022-12-07T05:26:46;2.50;99.90
44463;DHT22;30170;52.190;8.702;2022-12-07T05:29:14;3.50;99.90
44463;DHT22;30170;52.190;8.702;2022-12-07T05:31:41;3.20;99.90
44463;DHT22;30170;52.190;8.702;2022-12-07T05:34:08;3.10;99.90
44463;DHT22;30170;52.190;8.702;2022-12-07T05:36:35;2.90;99.90
44463;DHT22;30170;52.190;8.702;2022-12-07T05:39:02;3.20;99.90
44463;DHT22;30170;52.190;8.702;2022-12-07T05:41:29;2.40;99.90
44463;DHT22;30170;52.190;8.702;2022-12-07T05:44:15;3.20;99.90
44463;DHT22;30170;52.190;8.702;2022-12-07T05:46:41;3.20;99.90
44463;DHT22;30170;52.190;8.702;2022-12-07T05:49:08;2.40;99.90
44463;DHT22;30170;52.190;8.702;2022-12-07T05:51:35;3.90;99.90
44463;DHT22;30170;52.190;8.702;2022-12-07T05:54:02;3.10;99.90
44463;DHT22;30170;52.190;8.702;2022-12-07T05:56:28;3.30;99.90
44463;DHT22;30170;52.190;8.702;2022-12-07T05:58:58;2.80;99.90
44463;DHT22;30170;52.190;8.702;2022-12-07T06:02:11;3.80;99.90
44463;DHT22;30170;52.190;8.702;2022-12-07T06:04:39;3.00;99.90
44463;DHT22;30170;52.190;8.702;2022-12-07T06:07:06;2.60;99.90
44463;DHT22;30170;52.190;8.702;2022-12-07T06:09:33;3.00;99.90
44463;DHT22;30170;52.190;8.702;2022-12-07T06:12:00;2.00;99.90
44463;DHT22;30170;52.190;8.702;2022-12-07T06:18:14;2.70;99.90
44463;DHT22;30170;52.190;8.702;2022-12-07T06:20:42;2.70;99.90
44463;DHT22;30170;52.190;8.702;2022-12-07T06:23:11;3.10;99.90
44463;DHT22;30170;52.190;8.702;2022-12-07T06:25:38;2.40;99.90
44463;DHT22;30170;52.190;8.702;2022-12-07T06:28:05;3.70;99.90
44463;DHT22;30170;52.190;8.702;2022-12-07T06:30:56;2.00;99.90
44463;DHT22;30170;52.190;8.702;2022-12-07T06:33:26;2.50;99.90
44463;DHT22;30170;52.190;8.702;2022-12-07T06:35:54;2.40;99.90
44463;DHT22;30170;52.190;8.702;2022-12-07T06:38:24;2.50;99.90
44463;DHT22;30170;52.190;8.702;2022-12-07T06:40:54;2.50;99.90
44463;DHT22;30170;52.190;8.702;2022-12-07T06:43:21;2.90;99.90
44463;DHT22;30170;52.190;8.702;2022-12-07T06:45:53;2.20;99.90
44463;DHT22;30170;52.190;8.702;2022-12-07T06:48:43;3.00;99.90
44463;DHT22;30170;52.190;8.702;2022-12-07T06:51:10;1.40;99.90
44463;DHT22;30170;52.190;8.702;2022-12-07T06:53:37;2.30;99.90
44463;DHT22;30170;52.190;8.702;2022-12-07T06:56:04;2.10;99.90
44463;DHT22;30170;52.190;8.702;2022-12-07T06:58:31;3.10;99.90
44463;DHT22;30170;52.190;8.702;2022-12-07T07:00:58;2.40;99.90
44463;DHT22;30170;52.190;8.702;2022-12-07T07:03:25;2.20;99.90
44463;DHT22;30170;52.190;8.702;2022-12-07T07:05:52;2.20;99.90
44463;DHT22;30170;52.190;8.702;2022-12-07T07:08:19;2.00;99.90
44463;DHT22;30170;52.190;8.702;2022-12-07T07:10:48;1.90;99.90
44463;DHT22;30170;52.190;8.702;2022-12-07T07:21:56;2.00;99.90
44463;DHT22;30170;52.190;8.702;2022-12-07T07:55:52;2.80;99.90
44463;DHT22;30170;52.190;8.702;2022-12-07T07:58:20;3.90;99.90
44463;DHT22;30170;52.190;8.702;2022-12-07T08:00:47;2.50;99.90
44463;DHT22;30170;52.190;8.702;2022-12-07T08:03:15;2.40;99.90
44463;DHT22;30170;52.190;8.702;2022-12-07T08:05:42;2.70;99.90
44463;DHT22;30170;52.190;8.702;2022-12-07T08:11:50;5.10;99.90
44463;DHT22;30170;52.190;8.702;2022-12-07T08:14:46;2.90;99.90
44463;DHT22;30170;52.190;8.702;2022-12-07T08:17:13;2.60;99.90
44463;DHT22;30170;52.190;8.702;2022-12-07T08:19:43;2.30;99.90
44463;DHT22;30170;52.190;8.702;2022-12-07T08:22:16;1.70;99.90
44463;DHT22;30170;52.190;8.702;2022-12-07T08:24:54;3.10;99.90
44463;DHT22;30170;52.190;8.702;2022-12-07T08:30:49;4.70;99.90
44463;DHT22;30170;52.190;8.702;2022-12-07T08:33:41;2.10;99.90
44463;DHT22;30170;52.190;8.702;2022-12-07T08:36:10;2.10;99.90
44463;DHT22;30170;52.190;8.702;2022-12-07T08:38:46;3.20;99.90
44463;DHT22;30170;52.190;8.702;2022-12-07T08:41:37;3.20;99.90
44463;DHT22;30170;52.190;8.702;2022-12-07T08:51:05;3.50;99.90
44463;DHT22;30170;52.190;8.702;2022-12-07T08:53:50;2.70;99.90
44463;DHT22;30170;52.190;8.702;2022-12-07T08:56:29;3.60;99.90
44463;DHT22;30170;52.190;8.702;2022-12-07T08:58:56;3.50;99.90
44463;DHT22;30170;52.190;8.702;2022-12-07T09:01:26;3.50;99.90
44463;DHT22;30170;52.190;8.702;2022-12-07T09:04:00;3.60;99.90
44463;DHT22;30170;52.190;8.702;2022-12-07T09:06:27;5.10;99.90
44463;DHT22;30170;52.190;8.702;2022-12-07T09:08:55;3.70;99.90
44463;DHT22;30170;52.190;8.702;2022-12-07T09:11:23;3.50;99.90
44463;DHT22;30170;52.190;8.702;2022-12-07T09:13:54;3.60;99.90
44463;DHT22;30170;52.190;8.702;2022-12-07T09:16:21;5.00;99.90
44463;DHT22;30170;52.190;8.702;2022-12-07T09:18:48;3.50;99.90
44463;DHT22;30170;52.190;8.702;2022-12-07T09:21:15;3.20;99.90
44463;DHT22;30170;52.190;8.702;2022-12-07T09:23:44;3.50;99.90
44463;DHT22;30170;52.190;8.702;2022-12-07T09:26:11;3.50;99.90
44463;DHT22;30170;52.190;8.702;2022-12-07T09:28:38;3.50;99.90
44463;DHT22;30170;52.190;8.702;2022-12-07T09:31:05;2.70;99.90
44463;DHT22;30170;52.190;8.702;2022-12-07T09:33:57;3.50;99.90
44463;DHT22;30170;52.190;8.702;2022-12-07T09:36:24;4.60;99.90
44463;DHT22;30170;52.190;8.702;2022-12-07T09:38:51;4.00;99.90
44463;DHT22;30170;52.190;8.702;2022-12-07T09:41:36;6.50;99.90
44463;DHT22;30170;52.190;8.702;2022-12-07T09:44:20;3.70;99.90
44463;DHT22;30170;52.190;8.702;2022-12-07T09:46:55;4.40;99.90
44463;DHT22;30170;52.190;8.702;2022-12-07T09:49:25;4.90;99.90
44463;DHT22;30170;52.190;8.702;2022-12-07T09:54:43;6.60;99.90
44463;DHT22;30170;52.190;8.702;2022-12-07T09:57:11;5.80;99.90
44463;DHT22;30170;52.190;8.702;2022-12-07T10:02:37;5.20;99.90
44463;DHT22;30170;52.190;8.702;2022-12-07T10:05:09;6.10;99.90
44463;DHT22;30170;52.190;8.702;2022-12-07T10:07:37;5.60;99.90
44463;DHT22;30170;52.190;8.702;2022-12-07T10:10:34;5.10;99.90
44463;DHT22;30170;52.190;8.702;2022-12-07T10:16:31;3.90;99.90
44463;DHT22;30170;52.190;8.702;2022-12-07T10:24:33;5.40;99.90
44463;DHT22;30170;52.190;8.702;2022-12-07T10:27:20;5.10;99.90
44463;DHT22;30170;52.190;8.702;2022-12-07T10:29:51;6.60;99.90
44463;DHT22;30170;52.190;8.702;2022-12-07T11:31:33;6.70;99.90
44463;DHT22;30170;52.190;8.702;2022-12-07T11:34:05;6.30;99.90
44463;DHT22;30170;52.190;8.702;2022-12-07T11:39:30;6.80;99.90
44463;DHT22;30170;52.190;8.702;2022-12-07T11:41:52;5.70;99.90
44463;DHT22;30170;52.190;8.702;2022-12-07T11:46:56;6.00;99.90
44463;DHT22;30170;52.190;8.702;2022-12-07T11:52:04;6.70;99.90
44463;DHT22;30170;52.190;8.702;2022-12-07T11:54:34;6.80;99.90
44463;DHT22;30170;52.190;8.702;2022-12-07T11:57:22;7.30;99.90
44463;DHT22;30170;52.190;8.702;2022-12-07T11:59:52;9.60;99.90
44463;DHT22;30170;52.190;8.702;2022-12-07T12:02:41;8.40;99.90
44463;DHT22;30170;52.190;8.702;2022-12-07T12:05:16;8.00;99.90
44463;DHT22;30170;52.190;8.702;2022-12-07T12:07:43;8.10;99.90
44463;DHT22;30170;52.190;8.702;2022-12-07T12:18:40;7.60;99.90
44463;DHT22;30170;52.190;8.702;2022-12-07T12:21:22;5.70;99.90
44463;DHT22;30170;52.190;8.702;2022-12-07T12:24:10;7.30;99.90
44463;DHT22;30170;52.190;8.702;2022-12-07T12:26:40;6.60;99.90
44463;DHT22;30170;52.190;8.702;2022-12-07T12:29:27;5.50;99.90
44463;DHT22;30170;52.190;8.702;2022-12-07T12:32:05;7.00;99.90
44463;DHT22;30170;52.190;8.702;2022-12-07T12:42:47;6.30;99.90
44463;DHT22;30170;52.190;8.702;2022-12-07T12:45:19;6.00;99.90
44463;DHT22;30170;52.190;8.702;2022-12-07T12:50:39;6.90;99.90
44463;DHT22;30170;52.190;8.702;2022-12-07T12:53:14;6.90;99.90
44463;DHT22;30170;52.190;8.702;2022-12-07T13:03:54;6.70;99.90
44463;DHT22;30170;52.190;8.702;2022-12-07T13:08:53;6.60;99.90
44463;DHT22;30170;52.190;8.702;2022-12-07T13:11:38;7.00;99.90
44463;DHT22;30170;52.190;8.702;2022-12-07T13:16:59;8.10;99.90
44463;DHT22;30170;52.190;8.702;2022-12-07T13:24:57;7.90;99.90
44463;DHT22;30170;52.190;8.702;2022-12-07T13:27:25;7.30;99.90
44463;DHT22;30170;52.190;8.702;2022-12-07T13:29:53;7.10;99.90
44463;DHT22;30170;52.190;8.702;2022-12-07T13:32:23;6.70;99.90
44463;DHT22;30170;52.190;8.702;2022-12-07T13:34:52;6.50;99.90
44463;DHT22;30170;52.190;8.702;2022-12-07T13:37:24;6.60;99.90
44463;DHT22;30170;52.190;8.702;2022-12-07T13:40:14;6.80;99.90
44463;DHT22;30170;52.190;8.702;2022-12-07T13:42:43;5.40;99.90
44463;DHT22;30170;52.190;8.702;2022-12-07T13:45:21;7.40;99.90
44463;DHT22;30170;52.190;8.702;2022-12-07T13:54:09;6.10;99.90
44463;DHT22;30170;52.190;8.702;2022-12-07T13:56:36;5.50;99.90
44463;DHT22;30170;52.190;8.702;2022-12-07T13:59:03;6.30;99.90
44463;DHT22;30170;52.190;8.702;2022-12-07T14:01:31;5.70;99.90
44463;DHT22;30170;52.190;8.702;2022-12-07T14:06:48;5.60;99.90
44463;DHT22;30170;52.190;8.702;2022-12-07T14:09:22;5.90;99.90
44463;DHT22;30170;52.190;8.702;2022-12-07T14:11:50;4.40;99.90
44463;DHT22;30170;52.190;8.702;2022-12-07T14:14:18;5.40;99.90
44463;DHT22;30170;52.190;8.702;2022-12-07T14:16:54;5.30;99.90
44463;DHT22;30170;52.190;8.702;2022-12-07T14:22:53;5.80;99.90
44463;DHT22;30170;52.190;8.702;2022-12-07T14:27:46;5.80;99.90
44463;DHT22;30170;52.190;8.702;2022-12-07T14:30:16;5.80;99.90
44463;DHT22;30170;52.190;8.702;2022-12-07T14:32:44;6.00;99.90
44463;DHT22;30170;52.190;8.702;2022-12-07T14:35:15;5.60;99.90
44463;DHT22;30170;52.190;8.702;2022-12-07T14:37:47;5.40;99.90
44463;DHT22;30170;52.190;8.702;2022-12-07T14:40:21;6.10;99.90
44463;DHT22;30170;52.190;8.702;2022-12-07T14:42:51;5.90;99.90
44463;DHT22;30170;52.190;8.702;2022-12-07T14:45:20;5.00;99.90
44463;DHT22;30170;52.190;8.702;2022-12-07T14:47:47;4.80;99.90
44463;DHT22;30170;52.190;8.702;2022-12-07T14:50:38;5.00;99.90
44463;DHT22;30170;52.190;8.702;2022-12-07T14:53:31;5.00;99.90
44463;DHT22;30170;52.190;8.702;2022-12-07T14:56:03;6.00;99.90
44463;DHT22;30170;52.190;8.702;2022-12-07T14:58:34;5.60;99.90
44463;DHT22;30170;52.190;8.702;2022-12-07T15:01:01;4.60;99.90
44463;DHT22;30170;52.190;8.702;2022-12-07T15:03:28;5.00;99.90
44463;DHT22;30170;52.190;8.702;2022-12-07T15:05:56;4.50;99.90
44463;DHT22;30170;52.190;8.702;2022-12-07T15:08:22;4.40;99.90
44463;DHT22;30170;52.190;8.702;2022-12-07T15:10:49;4.70;99.90
44463;DHT22;30170;52.190;8.702;2022-12-07T15:13:16;4.20;99.90
44463;DHT22;30170;52.190;8.702;2022-12-07T15:16:01;4.30;99.90
44463;DHT22;30170;52.190;8.702;2022-12-07T15:18:41;4.80;99.90
44463;DHT22;30170;52.190;8.702;2022-12-07T15:21:18;5.20;99.90
44463;DHT22;30170;52.190;8.702;2022-12-07T15:23:45;4.30;99.90
44463;DHT22;30170;52.190;8.702;2022-12-07T15:26:23;4.20;99.90
44463;DHT22;30170;52.190;8.702;2022-12-07T15:28:49;5.10;99.90
44463;DHT22;30170;52.190;8.702;2022-12-07T15:31:31;4.30;99.90
44463;DHT22;30170;52.190;8.702;2022-12-07T15:34:40;5.30;99.90
44463;DHT22;30170;52.190;8.702;2022-12-07T15:37:07;4.20;99.90
44463;DHT22;30170;52.190;8.702;2022-12-07T15:39:35;4.20;99.90
44463;DHT22;30170;52.190;8.702;2022-12-07T15:42:02;4.30;99.90
44463;DHT22;30170;52.190;8.702;2022-12-07T15:44:29;4.10;99.90
44463;DHT22;30170;52.190;8.702;2022-12-07T15:47:16;5.40;99.90
44463;DHT22;30170;52.190;8.702;2022-12-07T15:49:43;3.90;99.90
44463;DHT22;30170;52.190;8.702;2022-12-07T15:52:10;3.90;99.90
44463;DHT22;30170;52.190;8.702;2022-12-07T15:54:37;3.70;99.90
44463;DHT22;30170;52.190;8.702;2022-12-07T15:57:04;5.90;99.90
44463;DHT22;30170;52.190;8.702;2022-12-07T15:59:31;3.50;99.90
44463;DHT22;30170;52.190;8.702;2022-12-07T16:01:58;3.30;99.90
44463;DHT22;30170;52.190;8.702;2022-12-07T16:04:27;3.00;99.90
44463;DHT22;30170;52.190;8.702;2022-12-07T16:06:54;3.10;99.90
44463;DHT22;30170;52.190;8.702;2022-12-07T16:09:21;3.10;99.90
44463;DHT22;30170;52.190;8.702;2022-12-07T16:15:13;5.70;99.90
44463;DHT22;30170;52.190;8.702;2022-12-07T16:17:39;3.00;99.90
44463;DHT22;30170;52.190;8.702;2022-12-07T16:20:12;3.00;99.90
44463;DHT22;30170;52.190;8.702;2022-12-07T16:33:27;2.70;99.90
44463;DHT22;30170;52.190;8.702;2022-12-07T16:35:55;2.70;99.90
44463;DHT22;30170;52.190;8.702;2022-12-07T16:38:22;2.70;99.90
44463;DHT22;30170;52.190;8.702;2022-12-07T16:40:51;2.60;99.90
44463;DHT22;30170;52.190;8.702;2022-12-07T16:43:19;2.60;99.90
44463;DHT22;30170;52.190;8.702;2022-12-07T16:45:46;2.60;99.90
44463;DHT22;30170;52.190;8.702;2022-12-07T16:48:13;2.60;99.90
44463;DHT22;30170;52.190;8.702;2022-12-07T16:50:41;2.60;99.90
44463;DHT22;30170;52.190;8.702;2022-12-07T16:53:16;2.60;99.90
44463;DHT22;30170;52.190;8.702;2022-12-07T16:55:44;2.60;99.90
44463;DHT22;30170;52.190;8.702;2022-12-07T16:58:14;2.60;99.90
44463;DHT22;30170;52.190;8.702;2022-12-07T17:00:58;2.60;99.90
44463;DHT22;30170;52.190;8.702;2022-12-07T17:03:25;2.70;99.90
44463;DHT22;30170;52.190;8.702;2022-12-07T17:05:51;2.60;99.90
44463;DHT22;30170;52.190;8.702;2022-12-07T17:08:18;2.60;99.90
44463;DHT22;30170;52.190;8.702;2022-12-07T17:10:45;2.60;99.90
44463;DHT22;30170;52.190;8.702;2022-12-07T17:13:12;2.50;99.90
44463;DHT22;30170;52.190;8.702;2022-12-07T17:15:59;2.50;99.90
44463;DHT22;30170;52.190;8.702;2022-12-07T17:18:27;2.60;99.90
44463;DHT22;30170;52.190;8.702;2022-12-07T17:20:54;2.50;99.90
44463;DHT22;30170;52.190;8.702;2022-12-07T17:23:25;2.60;99.90
44463;DHT22;30170;52.190;8.702;2022-12-07T17:25:52;2.60;99.90
44463;DHT22;30170;52.190;8.702;2022-12-07T17:28:19;2.70;99.90
44463;DHT22;30170;52.190;8.702;2022-12-07T17:30:46;2.70;99.90
44463;DHT22;30170;52.190;8.702;2022-12-07T17:33:13;2.80;99.90
44463;DHT22;30170;52.190;8.702;2022-12-07T17:35:40;2.80;99.90
44463;DHT22;30170;52.190;8.702;2022-12-07T17:38:07;2.70;99.90
44463;DHT22;30170;52.190;8.702;2022-12-07T17:40:36;2.90;99.90
44463;DHT22;30170;52.190;8.702;2022-12-07T17:49:58;2.80;99.90
44463;DHT22;30170;52.190;8.702;2022-12-07T17:52:32;2.80;99.90
44463;DHT22;30170;52.190;8.702;2022-12-07T17:55:19;2.80;99.90
44463;DHT22;30170;52.190;8.702;2022-12-07T17:57:46;2.40;99.90
44463;DHT22;30170;52.190;8.702;2022-12-07T18:00:13;3.60;99.90
44463;DHT22;30170;52.190;8.702;2022-12-07T18:02:40;3.00;99.90
44463;DHT22;30170;52.190;8.702;2022-12-07T18:05:07;3.00;99.90
44463;DHT22;30170;52.190;8.702;2022-12-07T18:07:37;3.00;99.90
44463;DHT22;30170;52.190;8.702;2022-12-07T18:10:04;3.00;99.90
44463;DHT22;30170;52.190;8.702;2022-12-07T18:12:33;3.00;99.90
44463;DHT22;30170;52.190;8.702;2022-12-07T18:15:02;3.10;99.90
44463;DHT22;30170;52.190;8.702;2022-12-07T18:17:29;3.10;99.90
44463;DHT22;30170;52.190;8.702;2022-12-07T18:19:59;3.10;99.90
44463;DHT22;30170;52.190;8.702;2022-12-07T18:22:26;3.10;99.90
44463;DHT22;30170;52.190;8.702;2022-12-07T18:24:53;0.20;99.90
44463;DHT22;30170;52.190;8.702;2022-12-07T18:27:21;2.90;99.90
44463;DHT22;30170;52.190;8.702;2022-12-07T18:29:48;3.00;99.90
44463;DHT22;30170;52.190;8.702;2022-12-07T18:32:15;3.00;99.90
44463;DHT22;30170;52.190;8.702;2022-12-07T18:34:42;3.00;99.90
44463;DHT22;30170;52.190;8.702;2022-12-07T18:37:09;3.00;99.90
44463;DHT22;30170;52.190;8.702;2022-12-07T18:39:36;3.00;99.90
44463;DHT22;30170;52.190;8.702;2022-12-07T18:42:03;3.00;99.90
44463;DHT22;30170;52.190;8.702;2022-12-07T18:44:30;3.00;99.90
44463;DHT22;30170;52.190;8.702;2022-12-07T18:46:57;3.10;99.90
44463;DHT22;30170;52.190;8.702;2022-12-07T18:49:24;2.80;99.90
44463;DHT22;30170;52.190;8.702;2022-12-07T18:51:51;2.90;99.90
44463;DHT22;30170;52.190;8.702;2022-12-07T18:54:32;2.80;99.90
44463;DHT22;30170;52.190;8.702;2022-12-07T18:56:59;2.80;99.90
44463;DHT22;30170;52.190;8.702;2022-12-07T18:59:26;2.80;99.90
44463;DHT22;30170;52.190;8.702;2022-12-07T19:02:14;3.00;99.90
44463;DHT22;30170;52.190;8.702;2022-12-07T19:04:44;3.00;99.90
44463;DHT22;30170;52.190;8.702;2022-12-07T19:07:11;3.00;99.90
44463;DHT22;30170;52.190;8.702;2022-12-07T19:09:38;3.00;99.90
44463;DHT22;30170;52.190;8.702;2022-12-07T19:12:05;3.20;99.90
44463;DHT22;30170;52.190;8.702;2022-12-07T19:14:33;3.00;99.90
44463;DHT22;30170;52.190;8.702;2022-12-07T19:17:05;3.00;99.90
44463;DHT22;30170;52.190;8.702;2022-12-07T19:19:34;3.80;99.90
44463;DHT22;30170;52.190;8.702;2022-12-07T19:22:01;3.00;99.90
44463;DHT22;30170;52.190;8.702;2022-12-07T19:24:28;3.00;99.90
44463;DHT22;30170;52.190;8.702;2022-12-07T19:26:56;3.00;99.90
44463;DHT22;30170;52.190;8.702;2022-12-07T19:29:23;3.00;99.90
44463;DHT22;30170;52.190;8.702;2022-12-07T19:31:50;3.00;99.90
44463;DHT22;30170;52.190;8.702;2022-12-07T19:34:17;3.00;99.90
44463;DHT22;30170;52.190;8.702;2022-12-07T19:36:44;3.00;99.90
44463;DHT22;30170;52.190;8.702;2022-12-07T19:39:11;2.90;99.90
44463;DHT22;30170;52.190;8.702;2022-12-07T19:41:41;2.90;99.90
44463;DHT22;30170;52.190;8.702;2022-12-07T19:44:11;2.90;99.90
44463;DHT22;30170;52.190;8.702;2022-12-07T19:46:46;2.90;99.90
44463;DHT22;30170;52.190;8.702;2022-12-07T19:49:30;2.90;99.90
44463;DHT22;30170;52.190;8.702;2022-12-07T19:51:58;2.90;99.90
44463;DHT22;30170;52.190;8.702;2022-12-07T19:54:28;2.90;99.90
44463;DHT22;30170;52.190;8.702;2022-12-07T19:56:56;2.90;99.90
44463;DHT22;30170;52.190;8.702;2022-12-07T19:59:24;2.90;99.90
44463;DHT22;30170;52.190;8.702;2022-12-07T20:02:10;3.00;99.90
44463;DHT22;30170;52.190;8.702;2022-12-07T20:05:00;3.00;99.90
44463;DHT22;30170;52.190;8.702;2022-12-07T20:10:59;2.90;99.90
44463;DHT22;30170;52.190;8.702;2022-12-07T20:13:25;3.00;99.90
44463;DHT22;30170;52.190;8.702;2022-12-07T20:15:57;3.00;99.90
44463;DHT22;30170;52.190;8.702;2022-12-07T20:18:45;3.00;99.90
44463;DHT22;30170;52.190;8.702;2022-12-07T20:21:12;3.00;99.90
44463;DHT22;30170;52.190;8.702;2022-12-07T20:23:39;3.00;99.90
44463;DHT22;30170;52.190;8.702;2022-12-07T20:26:07;3.00;99.90
44463;DHT22;30170;52.190;8.702;2022-12-07T20:28:34;3.00;99.90
44463;DHT22;30170;52.190;8.702;2022-12-07T20:31:03;1.40;99.90
44463;DHT22;30170;52.190;8.702;2022-12-07T20:33:30;1.40;99.90
44463;DHT22;30170;52.190;8.702;2022-12-07T20:35:58;3.00;99.90
44463;DHT22;30170;52.190;8.702;2022-12-07T20:38:27;3.00;99.90
44463;DHT22;30170;52.190;8.702;2022-12-07T20:40:57;3.00;99.90
44463;DHT22;30170;52.190;8.702;2022-12-07T20:43:24;3.00;99.90
44463;DHT22;30170;52.190;8.702;2022-12-07T20:45:51;3.00;99.90
44463;DHT22;30170;52.190;8.702;2022-12-07T20:48:18;3.10;99.90